sensor_id;sensor_type;location;lat;lon;timestamp;pressure;altitude;pressure_sealevel;temperature;humidity
42247;BME280;27913;42.722;23.268;2023-03-01T00:01:45;95229.00;;;4.89;100.00
42247;BME280;27913;42.722;23.268;2023-03-01T00:04:10;95358.50;;;5.73;100.00
42247;BME280;27913;42.722;23.268;2023-03-01T00:06:36;95465.84;;;6.34;100.00
42247;BME280;27913;42.722;23.268;2023-03-01T00:09:03;95376.63;;;5.74;100.00
42247;BME280;27913;42.722;23.268;2023-03-01T00:11:30;95465.25;;;6.40;100.00
42247;BME280;27913;42.722;23.268;2023-03-01T00:13:57;95403.31;;;6.04;100.00
42247;BME280;27913;42.722;23.268;2023-03-01T00:16:26;95452.50;;;6.37;100.00
42247;BME280;27913;42.722;23.268;2023-03-01T00:18:53;95343.81;;;5.72;100.00
42247;BME280;27913;42.722;23.268;2023-03-01T00:21:20;95306.38;;;5.44;100.00
42247;BME280;27913;42.722;23.268;2023-03-01T00:23:47;95398.66;;;6.08;100.00
42247;BME280;27913;42.722;23.268;2023-03-01T00:26:14;95433.25;;;6.20;99.27
42247;BME280;27913;42.722;23.268;2023-03-01T00:28:41;95382.44;;;5.86;100.00
42247;BME280;27913;42.722;23.268;2023-03-01T00:31:10;95380.25;;;5.82;100.00
42247;BME280;27913;42.722;23.268;2023-03-01T00:33:36;95427.19;;;6.20;100.00
42247;BME280;27913;42.722;23.268;2023-03-01T00:36:02;95372.88;;;5.77;99.98
42247;BME280;27913;42.722;23.268;2023-03-01T00:38:27;95276.88;;;5.16;99.46
42247;BME280;27913;42.722;23.268;2023-03-01T00:40:53;95418.81;;;6.16;99.63
42247;BME280;27913;42.722;23.268;2023-03-01T00:43:19;95421.59;;;6.14;99.59
42247;BME280;27913;42.722;23.268;2023-03-01T00:45:44;95428.06;;;6.10;100.00
42247;BME280;27913;42.722;23.268;2023-03-01T00:48:10;95381.16;;;5.72;100.00
42247;BME280;27913;42.722;23.268;2023-03-01T00:50:35;95408.84;;;5.83;100.00
42247;BME280;27913;42.722;23.268;2023-03-01T00:53:01;95326.47;;;5.34;100.00
42247;BME280;27913;42.722;23.268;2023-03-01T00:55:27;95434.28;;;6.09;100.00
42247;BME280;27913;42.722;23.268;2023-03-01T00:57:52;95325.66;;;5.52;99.84
42247;BME280;27913;42.722;23.268;2023-03-01T01:00:19;95424.63;;;6.10;99.55
42247;BME280;27913;42.722;23.268;2023-03-01T01:05:19;95332.78;;;5.31;99.85
42247;BME280;27913;42.722;23.268;2023-03-01T01:07:46;95345.91;;;5.40;100.00
42247;BME280;27913;42.722;23.268;2023-03-01T01:10:12;95237.72;;;4.79;99.82
42247;BME280;27913;42.722;23.268;2023-03-01T01:12:43;95254.69;;;4.83;100.00
42247;BME280;27913;42.722;23.268;2023-03-01T01:15:08;95448.03;;;6.01;100.00
42247;BME280;27913;42.722;23.268;2023-03-01T01:17:37;95444.19;;;5.96;99.50
42247;BME280;27913;42.722;23.268;2023-03-01T01:20:03;95190.03;;;4.41;99.51
42247;BME280;27913;42.722;23.268;2023-03-01T01:22:28;95427.88;;;5.94;99.56
42247;BME280;27913;42.722;23.268;2023-03-01T01:24:54;95382.19;;;5.61;99.25
42247;BME280;27913;42.722;23.268;2023-03-01T01:27:22;95417.88;;;5.89;98.97
42247;BME280;27913;42.722;23.268;2023-03-01T01:29:48;95284.88;;;5.04;98.93
42247;BME280;27913;42.722;23.268;2023-03-01T01:32:13;95267.56;;;4.85;98.94
42247;BME280;27913;42.722;23.268;2023-03-01T01:34:39;95170.50;;;4.17;98.70
42247;BME280;27913;42.722;23.268;2023-03-01T01:37:04;95401.28;;;5.62;99.21
42247;BME280;27913;42.722;23.268;2023-03-01T01:39:34;95327.91;;;5.18;99.07
42247;BME280;27913;42.722;23.268;2023-03-01T01:42:00;95446.00;;;5.95;98.22
42247;BME280;27913;42.722;23.268;2023-03-01T01:44:28;95458.84;;;5.88;97.75
42247;BME280;27913;42.722;23.268;2023-03-01T01:47:00;95379.66;;;5.51;97.72
42247;BME280;27913;42.722;23.268;2023-03-01T01:49:35;95374.56;;;5.50;97.24
42247;BME280;27913;42.722;23.268;2023-03-01T01:52:12;95347.75;;;5.29;97.04
42247;BME280;27913;42.722;23.268;2023-03-01T01:54:40;95329.31;;;5.13;96.72
42247;BME280;27913;42.722;23.268;2023-03-01T01:57:13;95424.16;;;5.68;97.06
42247;BME280;27913;42.722;23.268;2023-03-01T01:59:42;95380.66;;;5.40;96.89
42247;BME280;27913;42.722;23.268;2023-03-01T02:02:08;95440.97;;;5.84;96.48
42247;BME280;27913;42.722;23.268;2023-03-01T02:04:34;95371.28;;;5.48;96.32
42247;BME280;27913;42.722;23.268;2023-03-01T02:07:09;95162.69;;;4.27;95.88
42247;BME280;27913;42.722;23.268;2023-03-01T02:09:38;95427.25;;;5.82;96.06
42247;BME280;27913;42.722;23.268;2023-03-01T02:12:05;95428.91;;;5.83;96.34
42247;BME280;27913;42.722;23.268;2023-03-01T02:14:30;95402.03;;;5.72;96.28
42247;BME280;27913;42.722;23.268;2023-03-01T02:16:56;95292.63;;;4.96;96.46
42247;BME280;27913;42.722;23.268;2023-03-01T02:22:18;95214.25;;;4.51;96.93
42247;BME280;27913;42.722;23.268;2023-03-01T02:27:27;95349.16;;;5.24;98.63
42247;BME280;27913;42.722;23.268;2023-03-01T02:29:57;95412.66;;;5.61;98.61
42247;BME280;27913;42.722;23.268;2023-03-01T02:32:22;95412.09;;;5.67;98.67
42247;BME280;27913;42.722;23.268;2023-03-01T02:34:55;95373.97;;;5.28;98.75
42247;BME280;27913;42.722;23.268;2023-03-01T02:37:21;95202.28;;;4.30;99.10
42247;BME280;27913;42.722;23.268;2023-03-01T02:40:03;95196.44;;;4.08;99.17
42247;BME280;27913;42.722;23.268;2023-03-01T02:42:35;95375.34;;;5.32;99.97
42247;BME280;27913;42.722;23.268;2023-03-01T02:45:02;95389.72;;;5.36;100.00
42247;BME280;27913;42.722;23.268;2023-03-01T02:47:28;95371.13;;;5.21;100.00
42247;BME280;27913;42.722;23.268;2023-03-01T02:49:54;95353.56;;;5.23;100.00
42247;BME280;27913;42.722;23.268;2023-03-01T02:53:01;95336.56;;;5.19;100.00
42247;BME280;27913;42.722;23.268;2023-03-01T02:55:31;95419.47;;;5.72;100.00
42247;BME280;27913;42.722;23.268;2023-03-01T02:57:58;95379.41;;;5.44;100.00
42247;BME280;27913;42.722;23.268;2023-03-01T03:00:33;95379.81;;;5.68;99.90
42247;BME280;27913;42.722;23.268;2023-03-01T03:03:00;95428.06;;;5.82;99.43
42247;BME280;27913;42.722;23.268;2023-03-01T03:05:31;95421.06;;;5.83;99.22
42247;BME280;27913;42.722;23.268;2023-03-01T03:07:58;95294.44;;;5.14;98.93
42247;BME280;27913;42.722;23.268;2023-03-01T03:10:29;95261.00;;;4.81;98.44
42247;BME280;27913;42.722;23.268;2023-03-01T03:12:58;95417.09;;;5.78;98.53
42247;BME280;27913;42.722;23.268;2023-03-01T03:15:24;95416.31;;;5.78;97.93
42247;BME280;27913;42.722;23.268;2023-03-01T03:17:51;95423.47;;;5.76;98.21
42247;BME280;27913;42.722;23.268;2023-03-01T03:20:19;95391.16;;;5.59;97.73
42247;BME280;27913;42.722;23.268;2023-03-01T03:22:52;95195.94;;;4.33;97.07
42247;BME280;27913;42.722;23.268;2023-03-01T03:25:19;95269.94;;;4.78;97.22
42247;BME280;27913;42.722;23.268;2023-03-01T03:27:46;95345.91;;;5.22;97.38
42247;BME280;27913;42.722;23.268;2023-03-01T03:30:16;95369.53;;;5.38;97.19
42247;BME280;27913;42.722;23.268;2023-03-01T03:32:43;95398.84;;;5.50;96.86
42247;BME280;27913;42.722;23.268;2023-03-01T03:35:28;95376.53;;;5.38;96.92
42247;BME280;27913;42.722;23.268;2023-03-01T03:38:03;95187.88;;;4.26;96.60
42247;BME280;27913;42.722;23.268;2023-03-01T03:40:37;95322.31;;;5.13;96.66
42247;BME280;27913;42.722;23.268;2023-03-01T03:43:05;95431.28;;;5.76;96.56
42247;BME280;27913;42.722;23.268;2023-03-01T03:45:31;95413.66;;;5.60;96.30
42247;BME280;27913;42.722;23.268;2023-03-01T03:47:59;95375.06;;;5.35;96.57
42247;BME280;27913;42.722;23.268;2023-03-01T03:50:25;95306.91;;;4.92;96.54
42247;BME280;27913;42.722;23.268;2023-03-01T03:52:51;95434.84;;;5.75;96.54
42247;BME280;27913;42.722;23.268;2023-03-01T03:55:16;95418.25;;;5.48;96.70
42247;BME280;27913;42.722;23.268;2023-03-01T03:57:45;95284.50;;;4.71;96.80
42247;BME280;27913;42.722;23.268;2023-03-01T04:00:18;95419.53;;;5.62;97.25
42247;BME280;27913;42.722;23.268;2023-03-01T04:02:45;95434.75;;;5.66;97.62
42247;BME280;27913;42.722;23.268;2023-03-01T04:05:13;95312.13;;;4.92;97.14
42247;BME280;27913;42.722;23.268;2023-03-01T04:07:39;95446.19;;;5.65;97.34
42247;BME280;27913;42.722;23.268;2023-03-01T04:10:08;95212.59;;;4.12;97.30
42247;BME280;27913;42.722;23.268;2023-03-01T04:12:34;95382.41;;;5.22;97.54
42247;BME280;27913;42.722;23.268;2023-03-01T04:15:00;95456.63;;;5.55;97.81
42247;BME280;27913;42.722;23.268;2023-03-01T04:17:26;95395.81;;;5.27;97.71
42247;BME280;27913;42.722;23.268;2023-03-01T04:19:52;95444.19;;;5.49;98.17
42247;BME280;27913;42.722;23.268;2023-03-01T04:22:18;95233.84;;;4.07;98.61
42247;BME280;27913;42.722;23.268;2023-03-01T04:24:44;95401.44;;;5.22;98.60
42247;BME280;27913;42.722;23.268;2023-03-01T04:27:11;95389.31;;;5.03;96.45
42247;BME280;27913;42.722;23.268;2023-03-01T04:29:36;95383.75;;;4.88;95.63
42247;BME280;27913;42.722;23.268;2023-03-01T04:32:02;95383.06;;;4.86;95.18
42247;BME280;27913;42.722;23.268;2023-03-01T04:34:28;95261.41;;;4.00;94.67
42247;BME280;27913;42.722;23.268;2023-03-01T04:36:54;95335.72;;;4.42;94.55
42247;BME280;27913;42.722;23.268;2023-03-01T04:39:20;95412.28;;;4.89;93.95
42247;BME280;27913;42.722;23.268;2023-03-01T04:41:45;95332.56;;;4.49;93.94
42247;BME280;27913;42.722;23.268;2023-03-01T04:44:11;95421.81;;;5.08;94.12
42247;BME280;27913;42.722;23.268;2023-03-01T04:46:36;95431.28;;;5.10;93.63
42247;BME280;27913;42.722;23.268;2023-03-01T04:49:03;95360.34;;;4.68;94.13
42247;BME280;27913;42.722;23.268;2023-03-01T04:51:28;95321.34;;;4.38;94.22
42247;BME280;27913;42.722;23.268;2023-03-01T04:53:54;95324.22;;;4.35;94.58
42247;BME280;27913;42.722;23.268;2023-03-01T04:56:20;95371.06;;;4.45;95.24
42247;BME280;27913;42.722;23.268;2023-03-01T04:58:48;95444.09;;;4.93;95.73
42247;BME280;27913;42.722;23.268;2023-03-01T05:01:16;95370.09;;;4.56;95.97
42247;BME280;27913;42.722;23.268;2023-03-01T05:03:47;95330.69;;;4.21;96.33
42247;BME280;27913;42.722;23.268;2023-03-01T05:06:13;95166.31;;;3.18;97.73
42247;BME280;27913;42.722;23.268;2023-03-01T05:08:40;95332.47;;;4.20;98.39
42247;BME280;27913;42.722;23.268;2023-03-01T05:11:05;95364.38;;;4.42;98.47
42247;BME280;27913;42.722;23.268;2023-03-01T05:13:34;95365.59;;;4.38;98.79
42247;BME280;27913;42.722;23.268;2023-03-01T05:16:02;95342.47;;;4.25;99.08
42247;BME280;27913;42.722;23.268;2023-03-01T05:18:29;95199.03;;;3.41;99.40
42247;BME280;27913;42.722;23.268;2023-03-01T05:21:00;95434.13;;;4.68;100.00
42247;BME280;27913;42.722;23.268;2023-03-01T05:23:26;95431.53;;;4.68;100.00
42247;BME280;27913;42.722;23.268;2023-03-01T05:25:51;95352.63;;;4.08;100.00
42247;BME280;27913;42.722;23.268;2023-03-01T05:28:18;95313.56;;;3.89;100.00
42247;BME280;27913;42.722;23.268;2023-03-01T05:30:46;95295.25;;;3.80;100.00
42247;BME280;27913;42.722;23.268;2023-03-01T05:33:11;95348.50;;;4.35;100.00
42247;BME280;27913;42.722;23.268;2023-03-01T05:35:41;95438.34;;;4.89;100.00
42247;BME280;27913;42.722;23.268;2023-03-01T05:38:08;95437.94;;;4.84;100.00
42247;BME280;27913;42.722;23.268;2023-03-01T05:40:34;95459.34;;;4.88;100.00
42247;BME280;27913;42.722;23.268;2023-03-01T05:43:00;95387.78;;;4.52;100.00
42247;BME280;27913;42.722;23.268;2023-03-01T05:45:27;95404.50;;;4.79;100.00
42247;BME280;27913;42.722;23.268;2023-03-01T05:47:53;95397.78;;;4.67;100.00
42247;BME280;27913;42.722;23.268;2023-03-01T05:50:25;95362.97;;;4.58;100.00
42247;BME280;27913;42.722;23.268;2023-03-01T05:53:18;95344.59;;;4.59;100.00
42247;BME280;27913;42.722;23.268;2023-03-01T05:55:38;95456.91;;;5.24;99.88
42247;BME280;27913;42.722;23.268;2023-03-01T05:58:06;95409.56;;;4.81;100.00
42247;BME280;27913;42.722;23.268;2023-03-01T06:00:32;95397.06;;;4.85;99.35
42247;BME280;27913;42.722;23.268;2023-03-01T06:03:00;95400.47;;;4.95;99.57
42247;BME280;27913;42.722;23.268;2023-03-01T06:05:27;95461.56;;;5.20;99.32
42247;BME280;27913;42.722;23.268;2023-03-01T06:07:53;95386.50;;;4.76;99.49
42247;BME280;27913;42.722;23.268;2023-03-01T06:10:20;95463.28;;;5.40;99.54
42247;BME280;27913;42.722;23.268;2023-03-01T06:12:46;95481.25;;;5.43;99.15
42247;BME280;27913;42.722;23.268;2023-03-01T06:15:14;95386.91;;;4.91;98.73
42247;BME280;27913;42.722;23.268;2023-03-01T06:17:41;95379.50;;;4.77;98.87
42247;BME280;27913;42.722;23.268;2023-03-01T06:20:13;95376.78;;;4.78;98.79
42247;BME280;27913;42.722;23.268;2023-03-01T06:22:39;95413.47;;;5.05;98.53
42247;BME280;27913;42.722;23.268;2023-03-01T06:25:06;95430.75;;;5.06;98.37
42247;BME280;27913;42.722;23.268;2023-03-01T06:27:31;95475.50;;;5.49;98.11
42247;BME280;27913;42.722;23.268;2023-03-01T06:29:57;95447.25;;;5.35;97.91
42247;BME280;27913;42.722;23.268;2023-03-01T06:32:22;95475.88;;;5.54;98.00
42247;BME280;27913;42.722;23.268;2023-03-01T06:34:48;95482.88;;;5.54;97.86
42247;BME280;27913;42.722;23.268;2023-03-01T06:37:14;95451.78;;;5.32;97.91
42247;BME280;27913;42.722;23.268;2023-03-01T06:39:39;95485.19;;;5.57;97.50
42247;BME280;27913;42.722;23.268;2023-03-01T06:42:05;95492.09;;;5.48;98.11
42247;BME280;27913;42.722;23.268;2023-03-01T06:44:32;95480.72;;;5.49;98.57
42247;BME280;27913;42.722;23.268;2023-03-01T06:46:57;95492.06;;;5.58;98.40
42247;BME280;27913;42.722;23.268;2023-03-01T06:49:23;95483.81;;;5.63;97.44
42247;BME280;27913;42.722;23.268;2023-03-01T06:51:49;95247.53;;;4.09;97.44
42247;BME280;27913;42.722;23.268;2023-03-01T06:54:14;95331.28;;;4.73;97.17
42247;BME280;27913;42.722;23.268;2023-03-01T06:56:40;95437.34;;;5.38;96.72
42247;BME280;27913;42.722;23.268;2023-03-01T06:59:05;95331.13;;;4.74;96.35
42247;BME280;27913;42.722;23.268;2023-03-01T07:01:31;95396.00;;;5.15;96.56
42247;BME280;27913;42.722;23.268;2023-03-01T07:03:57;95477.03;;;5.70;96.33
42247;BME280;27913;42.722;23.268;2023-03-01T07:06:23;95377.94;;;5.04;95.67
42247;BME280;27913;42.722;23.268;2023-03-01T07:08:48;95431.91;;;5.31;95.66
42247;BME280;27913;42.722;23.268;2023-03-01T07:11:14;95448.97;;;5.54;95.58
42247;BME280;27913;42.722;23.268;2023-03-01T07:13:40;95473.72;;;5.78;95.33
42247;BME280;27913;42.722;23.268;2023-03-01T07:16:06;95247.47;;;4.39;94.62
42247;BME280;27913;42.722;23.268;2023-03-01T07:18:32;95418.41;;;5.46;94.77
42247;BME280;27913;42.722;23.268;2023-03-01T07:20:58;95483.03;;;5.80;94.92
42247;BME280;27913;42.722;23.268;2023-03-01T07:23:23;95421.41;;;5.41;94.70
42247;BME280;27913;42.722;23.268;2023-03-01T07:25:53;95421.09;;;5.54;94.58
42247;BME280;27913;42.722;23.268;2023-03-01T07:28:19;95486.28;;;5.92;94.38
42247;BME280;27913;42.722;23.268;2023-03-01T07:30:45;95445.00;;;5.78;94.39
42247;BME280;27913;42.722;23.268;2023-03-01T07:33:10;95470.84;;;5.99;93.87
42247;BME280;27913;42.722;23.268;2023-03-01T07:35:36;95476.88;;;6.00;93.84
42247;BME280;27913;42.722;23.268;2023-03-01T07:38:01;95402.75;;;5.64;93.67
42247;BME280;27913;42.722;23.268;2023-03-01T07:40:27;95474.25;;;6.10;93.57
42247;BME280;27913;42.722;23.268;2023-03-01T07:42:56;95389.63;;;5.56;93.33
42247;BME280;27913;42.722;23.268;2023-03-01T07:45:23;95338.59;;;5.25;92.62
42247;BME280;27913;42.722;23.268;2023-03-01T07:47:50;95268.00;;;4.80;93.27
42247;BME280;27913;42.722;23.268;2023-03-01T07:50:16;95476.44;;;6.14;93.21
42247;BME280;27913;42.722;23.268;2023-03-01T07:52:41;95470.59;;;6.21;92.99
42247;BME280;27913;42.722;23.268;2023-03-01T07:55:07;95249.00;;;4.98;92.32
42247;BME280;27913;42.722;23.268;2023-03-01T07:57:33;95457.78;;;6.27;91.29
42247;BME280;27913;42.722;23.268;2023-03-01T07:59:58;95429.28;;;6.16;91.05
42247;BME280;27913;42.722;23.268;2023-03-01T08:02:24;95415.59;;;6.04;91.40
42247;BME280;27913;42.722;23.268;2023-03-01T08:04:49;95389.53;;;5.94;90.55
42247;BME280;27913;42.722;23.268;2023-03-01T08:07:15;95455.69;;;6.31;90.25
42247;BME280;27913;42.722;23.268;2023-03-01T08:09:40;95411.13;;;6.14;90.25
42247;BME280;27913;42.722;23.268;2023-03-01T08:12:06;95395.78;;;6.11;89.83
42247;BME280;27913;42.722;23.268;2023-03-01T08:14:32;95256.94;;;5.25;89.32
42247;BME280;27913;42.722;23.268;2023-03-01T08:16:58;95452.50;;;6.37;89.71
42247;BME280;27913;42.722;23.268;2023-03-01T08:19:24;95323.59;;;5.74;89.17
42247;BME280;27913;42.722;23.268;2023-03-01T08:21:49;95456.00;;;6.46;88.79
42247;BME280;27913;42.722;23.268;2023-03-01T08:24:15;95411.38;;;6.21;88.46
42247;BME280;27913;42.722;23.268;2023-03-01T08:26:41;95456.28;;;6.43;87.96
42247;BME280;27913;42.722;23.268;2023-03-01T08:29:06;95333.22;;;5.73;87.95
42247;BME280;27913;42.722;23.268;2023-03-01T08:31:37;95446.81;;;6.42;88.37
42247;BME280;27913;42.722;23.268;2023-03-01T08:34:06;95425.59;;;6.45;88.45
42247;BME280;27913;42.722;23.268;2023-03-01T08:36:46;95387.59;;;5.96;88.03
42247;BME280;27913;42.722;23.268;2023-03-01T08:39:14;95456.38;;;6.33;88.61
42247;BME280;27913;42.722;23.268;2023-03-01T08:41:41;95372.22;;;5.93;88.59
42247;BME280;27913;42.722;23.268;2023-03-01T08:44:07;95221.16;;;5.17;88.12
42247;BME280;27913;42.722;23.268;2023-03-01T08:46:37;95427.31;;;6.36;88.22
42247;BME280;27913;42.722;23.268;2023-03-01T08:49:08;95448.44;;;6.61;88.46
42247;BME280;27913;42.722;23.268;2023-03-01T08:51:34;95195.53;;;5.12;88.48
42247;BME280;27913;42.722;23.268;2023-03-01T08:54:06;95416.03;;;6.54;88.10
42247;BME280;27913;42.722;23.268;2023-03-01T08:56:32;95450.66;;;6.74;87.80
42247;BME280;27913;42.722;23.268;2023-03-01T08:58:58;95435.28;;;6.71;87.15
42247;BME280;27913;42.722;23.268;2023-03-01T09:01:24;95369.84;;;6.36;87.00
42247;BME280;27913;42.722;23.268;2023-03-01T09:03:49;95272.28;;;5.83;86.11
42247;BME280;27913;42.722;23.268;2023-03-01T09:06:15;95367.44;;;6.43;86.49
42247;BME280;27913;42.722;23.268;2023-03-01T09:08:43;95398.19;;;6.68;86.32
42247;BME280;27913;42.722;23.268;2023-03-01T09:11:11;95292.31;;;6.19;86.10
42247;BME280;27913;42.722;23.268;2023-03-01T09:13:38;95448.31;;;7.16;85.75
42247;BME280;27913;42.722;23.268;2023-03-01T09:16:05;95331.69;;;6.44;83.75
42247;BME280;27913;42.722;23.268;2023-03-01T09:18:32;95359.84;;;6.50;83.89
42247;BME280;27913;42.722;23.268;2023-03-01T09:21:24;95337.28;;;6.49;82.90
42247;BME280;27913;42.722;23.268;2023-03-01T09:23:49;95382.72;;;6.74;83.03
42247;BME280;27913;42.722;23.268;2023-03-01T09:26:18;95282.06;;;6.44;82.66
42247;BME280;27913;42.722;23.268;2023-03-01T09:28:45;95351.97;;;6.76;81.95
42247;BME280;27913;42.722;23.268;2023-03-01T09:31:12;95316.78;;;6.62;81.88
42247;BME280;27913;42.722;23.268;2023-03-01T09:33:39;95370.91;;;6.97;81.12
42247;BME280;27913;42.722;23.268;2023-03-01T09:36:07;95402.19;;;7.15;81.61
42247;BME280;27913;42.722;23.268;2023-03-01T09:38:33;95386.13;;;7.01;81.74
42247;BME280;27913;42.722;23.268;2023-03-01T09:41:00;95294.34;;;6.51;81.92
42247;BME280;27913;42.722;23.268;2023-03-01T09:43:37;95387.25;;;7.25;81.33
42247;BME280;27913;42.722;23.268;2023-03-01T09:46:09;95424.84;;;7.33;81.81
42247;BME280;27913;42.722;23.268;2023-03-01T09:48:57;95319.22;;;6.91;81.05
42247;BME280;27913;42.722;23.268;2023-03-01T09:51:33;95410.59;;;7.62;80.49
42247;BME280;27913;42.722;23.268;2023-03-01T09:54:02;95356.91;;;7.06;80.94
42247;BME280;27913;42.722;23.268;2023-03-01T09:56:41;95396.34;;;7.56;81.00
42247;BME280;27913;42.722;23.268;2023-03-01T09:59:23;95400.59;;;7.57;81.14
42247;BME280;27913;42.722;23.268;2023-03-01T10:01:56;95381.47;;;7.57;80.60
42247;BME280;27913;42.722;23.268;2023-03-01T10:07:15;95342.25;;;7.22;80.71
42247;BME280;27913;42.722;23.268;2023-03-01T10:09:45;95305.88;;;7.02;80.00
42247;BME280;27913;42.722;23.268;2023-03-01T10:12:24;95407.00;;;7.71;79.49
42247;BME280;27913;42.722;23.268;2023-03-01T10:15:10;95289.69;;;7.07;79.17
42247;BME280;27913;42.722;23.268;2023-03-01T10:17:58;95394.25;;;7.68;79.47
42247;BME280;27913;42.722;23.268;2023-03-01T10:20:48;95305.63;;;7.22;78.40
42247;BME280;27913;42.722;23.268;2023-03-01T10:23:17;95355.31;;;7.65;78.52
42247;BME280;27913;42.722;23.268;2023-03-01T10:29:10;95393.31;;;7.86;78.58
42247;BME280;27913;42.722;23.268;2023-03-01T10:31:42;95387.13;;;8.04;78.28
42247;BME280;27913;42.722;23.268;2023-03-01T10:34:29;95353.88;;;7.79;77.62
42247;BME280;27913;42.722;23.268;2023-03-01T10:36:58;95283.06;;;7.29;78.30
42247;BME280;27913;42.722;23.268;2023-03-01T10:39:26;95295.53;;;7.44;76.89
42247;BME280;27913;42.722;23.268;2023-03-01T10:42:03;95311.41;;;7.51;76.58
42247;BME280;27913;42.722;23.268;2023-03-01T10:44:42;95332.75;;;7.72;76.43
42247;BME280;27913;42.722;23.268;2023-03-01T10:49:39;95372.56;;;8.09;76.86
42247;BME280;27913;42.722;23.268;2023-03-01T10:52:22;95239.91;;;7.25;76.37
42247;BME280;27913;42.722;23.268;2023-03-01T10:57:49;95219.91;;;7.07;76.55
42247;BME280;27913;42.722;23.268;2023-03-01T11:00:17;95306.84;;;7.61;76.76
42247;BME280;27913;42.722;23.268;2023-03-01T11:05:33;95387.75;;;7.89;76.71
42247;BME280;27913;42.722;23.268;2023-03-01T11:08:00;95352.69;;;7.73;76.33
42247;BME280;27913;42.722;23.268;2023-03-01T11:10:32;95380.72;;;7.81;77.17
42247;BME280;27913;42.722;23.268;2023-03-01T11:13:08;95317.47;;;7.51;77.85
42247;BME280;27913;42.722;23.268;2023-03-01T11:15:38;95328.63;;;7.70;77.38
42247;BME280;27913;42.722;23.268;2023-03-01T11:18:03;95372.03;;;7.81;77.91
42247;BME280;27913;42.722;23.268;2023-03-01T11:20:32;95371.88;;;7.91;78.58
42247;BME280;27913;42.722;23.268;2023-03-01T11:25:34;95362.06;;;7.93;79.31
42247;BME280;27913;42.722;23.268;2023-03-01T11:28:03;95368.47;;;7.98;79.40
42247;BME280;27913;42.722;23.268;2023-03-01T11:30:34;95359.44;;;7.93;79.25
42247;BME280;27913;42.722;23.268;2023-03-01T11:33:19;95303.63;;;7.67;79.68
42247;BME280;27913;42.722;23.268;2023-03-01T11:38:34;95353.75;;;7.97;80.24
42247;BME280;27913;42.722;23.268;2023-03-01T11:41:36;95318.38;;;7.85;79.65
42247;BME280;27913;42.722;23.268;2023-03-01T11:44:17;95277.78;;;7.72;78.68
42247;BME280;27913;42.722;23.268;2023-03-01T11:46:57;95290.53;;;7.84;78.83
42247;BME280;27913;42.722;23.268;2023-03-01T12:06:47;95202.59;;;7.06;80.33
42247;BME280;27913;42.722;23.268;2023-03-01T12:34:35;95242.59;;;7.92;78.42
42247;BME280;27913;42.722;23.268;2023-03-01T12:37:29;95286.56;;;8.38;77.87
42247;BME280;27913;42.722;23.268;2023-03-01T12:40:15;95229.47;;;7.75;78.02
42247;BME280;27913;42.722;23.268;2023-03-01T12:43:15;95240.13;;;7.73;78.49
42247;BME280;27913;42.722;23.268;2023-03-01T12:51:20;95168.31;;;7.68;77.51
42247;BME280;27913;42.722;23.268;2023-03-01T12:53:50;95242.06;;;8.05;77.09
42247;BME280;27913;42.722;23.268;2023-03-01T12:56:24;95311.34;;;8.61;76.40
42247;BME280;27913;42.722;23.268;2023-03-01T13:09:32;95231.59;;;8.21;76.09
42247;BME280;27913;42.722;23.268;2023-03-01T13:11:59;95184.66;;;7.70;76.81
42247;BME280;27913;42.722;23.268;2023-03-01T13:16:51;95300.69;;;8.37;77.34
42247;BME280;27913;42.722;23.268;2023-03-01T13:19:21;95265.50;;;8.15;77.49
42247;BME280;27913;42.722;23.268;2023-03-01T13:21:49;95109.25;;;6.98;77.82
42247;BME280;27913;42.722;23.268;2023-03-01T13:24:33;95245.53;;;7.97;78.30
42247;BME280;27913;42.722;23.268;2023-03-01T13:29:52;95296.13;;;8.06;79.04
42247;BME280;27913;42.722;23.268;2023-03-01T13:32:29;95208.06;;;7.46;79.18
42247;BME280;27913;42.722;23.268;2023-03-01T13:37:45;95097.72;;;6.58;79.76
42247;BME280;27913;42.722;23.268;2023-03-01T13:42:47;95173.16;;;7.04;80.58
42247;BME280;27913;42.722;23.268;2023-03-01T13:45:18;95231.13;;;7.51;81.07
42247;BME280;27913;42.722;23.268;2023-03-01T13:47:46;95161.72;;;7.05;81.67
42247;BME280;27913;42.722;23.268;2023-03-01T13:50:23;95069.94;;;6.48;81.37
42247;BME280;27913;42.722;23.268;2023-03-01T13:53:04;95136.41;;;7.06;81.32
42247;BME280;27913;42.722;23.268;2023-03-01T13:55:40;95227.53;;;7.60;80.96
42247;BME280;27913;42.722;23.268;2023-03-01T14:00:45;95201.78;;;7.14;82.68
42247;BME280;27913;42.722;23.268;2023-03-01T14:03:12;95233.91;;;7.49;82.78
42247;BME280;27913;42.722;23.268;2023-03-01T14:05:40;95296.75;;;7.83;82.81
42247;BME280;27913;42.722;23.268;2023-03-01T14:08:22;95273.50;;;7.71;82.20
42247;BME280;27913;42.722;23.268;2023-03-01T14:13:43;95226.22;;;7.65;81.27
42247;BME280;27913;42.722;23.268;2023-03-01T14:16:54;95277.78;;;8.14;81.14
42247;BME280;27913;42.722;23.268;2023-03-01T14:19:27;95154.22;;;7.19;80.94
42247;BME280;27913;42.722;23.268;2023-03-01T14:24:50;95270.25;;;8.03;81.76
42247;BME280;27913;42.722;23.268;2023-03-01T14:27:17;95130.03;;;7.17;81.34
42247;BME280;27913;42.722;23.268;2023-03-01T14:29:43;95220.97;;;7.65;81.75
42247;BME280;27913;42.722;23.268;2023-03-01T14:34:47;95123.47;;;7.04;81.86
42247;BME280;27913;42.722;23.268;2023-03-01T14:39:51;95185.13;;;7.48;81.77
42247;BME280;27913;42.722;23.268;2023-03-01T14:42:18;95276.63;;;8.08;81.78
42247;BME280;27913;42.722;23.268;2023-03-01T14:44:46;95226.69;;;7.68;82.08
42247;BME280;27913;42.722;23.268;2023-03-01T14:47:32;95080.63;;;6.80;82.22
42247;BME280;27913;42.722;23.268;2023-03-01T14:50:05;95283.34;;;8.03;82.60
42247;BME280;27913;42.722;23.268;2023-03-01T14:52:37;95216.06;;;7.70;82.56
42247;BME280;27913;42.722;23.268;2023-03-01T14:55:07;95195.59;;;7.48;82.76
42247;BME280;27913;42.722;23.268;2023-03-01T14:57:43;95265.81;;;7.95;82.91
42247;BME280;27913;42.722;23.268;2023-03-01T15:00:18;95045.47;;;6.58;83.00
42247;BME280;27913;42.722;23.268;2023-03-01T15:02:46;95252.75;;;7.87;82.93